createdAt,value
2019-05-09T03:23:32.432Z,9.90
2019-05-09T03:26:01.927Z,10.00
2019-05-09T03:28:50.344Z,9.90
2019-05-09T03:31:21.179Z,9.90
2019-05-09T03:33:51.003Z,9.90
2019-05-09T03:36:20.722Z,9.90
2019-05-09T03:38:50.168Z,9.90
2019-05-09T03:41:19.588Z,10.00
2019-05-09T03:43:49.042Z,9.90
2019-05-09T03:46:38.450Z,9.90
2019-05-09T03:49:08.455Z,9.90
2019-05-09T03:51:38.026Z,10.00
2019-05-09T03:54:08.196Z,10.00
2019-05-09T03:56:41.557Z,10.00
2019-05-09T03:59:10.966Z,10.00
2019-05-09T04:01:40.552Z,10.00
2019-05-09T04:04:09.991Z,9.90
2019-05-09T04:06:39.465Z,10.00
2019-05-09T04:09:09.141Z,10.00
2019-05-09T04:11:38.616Z,10.00
2019-05-09T04:14:12.585Z,9.90
2019-05-09T04:16:42.018Z,10.00
2019-05-09T04:19:11.485Z,10.00
2019-05-09T04:21:40.899Z,10.00
2019-05-09T04:24:10.675Z,10.00
2019-05-09T04:26:54.329Z,10.10
2019-05-09T04:29:23.801Z,10.10
2019-05-09T04:31:53.232Z,10.10
2019-05-09T04:34:22.762Z,10.10
2019-05-09T04:36:52.207Z,10.10
2019-05-09T04:39:23.828Z,10.10
2019-05-09T04:41:55.073Z,10.10
2019-05-09T04:44:42.842Z,10.10
2019-05-09T04:47:12.274Z,10.20
2019-05-09T04:49:45.129Z,10.10
2019-05-09T04:52:12.861Z,10.10
2019-05-09T04:54:42.309Z,10.10
2019-05-09T04:57:11.787Z,10.20
2019-05-09T05:00:00.292Z,10.10
2019-05-09T05:02:43.348Z,10.20
2019-05-09T05:05:12.814Z,10.20
2019-05-09T05:07:42.925Z,10.20
2019-05-09T05:10:12.448Z,10.20
2019-05-09T05:12:41.887Z,10.20
2019-05-09T05:15:11.343Z,10.30
2019-05-09T05:17:40.747Z,10.30
2019-05-09T05:20:13.763Z,10.40
2019-05-09T05:22:48.497Z,10.40
2019-05-09T05:25:17.995Z,10.50
2019-05-09T05:27:47.606Z,10.50
2019-05-09T05:30:18.022Z,10.60
2019-05-09T05:33:18.377Z,10.60
2019-05-09T05:35:50.969Z,10.60
2019-05-09T05:38:20.509Z,10.60
2019-05-09T05:40:50.031Z,10.50
2019-05-09T05:43:19.845Z,10.40
2019-05-09T05:45:55.393Z,10.40
2019-05-09T05:48:28.402Z,10.40
2019-05-09T05:50:57.994Z,10.40
2019-05-09T05:53:27.834Z,10.40
2019-05-09T05:55:58.042Z,10.40
2019-05-09T05:58:28.344Z,10.50
2019-05-09T06:00:58.908Z,10.50
2019-05-09T06:03:28.528Z,10.50
2019-05-09T06:05:58.542Z,10.60
2019-05-09T06:08:28.107Z,10.60
2019-05-09T06:10:57.768Z,10.60
2019-05-09T06:13:27.629Z,10.70
2019-05-09T06:15:58.662Z,10.60
2019-05-09T06:18:28.324Z,10.60
2019-05-09T06:20:58.416Z,10.60
2019-05-09T06:23:28.342Z,10.60
2019-05-09T06:25:59.874Z,10.70
2019-05-09T06:42:38.997Z,10.70
2019-05-09T06:45:32.860Z,10.90
2019-05-09T06:48:02.355Z,11.00
2019-05-09T06:50:32.224Z,11.10
2019-05-09T06:53:01.729Z,11.20
2019-05-09T06:55:31.170Z,11.10
2019-05-09T06:58:02.682Z,11.00
2019-05-09T07:00:44.772Z,11.00
2019-05-09T07:03:18.533Z,11.00
2019-05-09T07:06:21.934Z,10.80
2019-05-09T07:09:12.927Z,10.80
2019-05-09T07:11:42.663Z,10.80
2019-05-09T07:14:43.350Z,10.80
2019-05-09T07:17:13.168Z,10.90
2019-05-09T07:19:43.853Z,11.00
2019-05-09T07:22:28.847Z,11.00
2019-05-09T07:25:11.307Z,11.00
2019-05-09T07:27:40.828Z,11.00
2019-05-09T07:30:20.893Z,11.00
2019-05-09T07:33:31.135Z,11.00
2019-05-09T07:36:00.658Z,11.00
2019-05-09T07:38:31.158Z,10.90
2019-05-09T07:41:01.312Z,10.90
2019-05-09T07:43:30.879Z,11.00
2019-05-09T07:46:25.543Z,11.00
2019-05-09T07:48:57.751Z,11.10
2019-05-09T07:51:28.184Z,11.10
2019-05-09T07:53:58.891Z,11.20
2019-05-09T07:56:28.833Z,11.40
2019-05-09T07:58:58.667Z,11.50
2019-05-09T08:01:28.325Z,11.60
2019-05-09T08:03:58.537Z,11.70
2019-05-09T08:06:28.895Z,11.70
2019-05-09T08:08:58.560Z,11.70
2019-05-09T08:11:29.496Z,11.80
2019-05-09T08:13:59.014Z,11.90
2019-05-09T08:16:28.850Z,12.10
2019-05-09T08:18:58.704Z,12.00
2019-05-09T08:21:28.561Z,12.20
2019-05-09T08:23:58.143Z,12.40
2019-05-09T08:26:29.983Z,12.40
2019-05-09T08:28:58.882Z,12.40
2019-05-09T08:31:28.813Z,12.50
2019-05-09T08:33:59.305Z,12.60
2019-05-09T08:36:29.155Z,12.70
2019-05-09T08:38:59.091Z,12.90
2019-05-09T08:41:29.317Z,12.90
2019-05-09T08:43:59.367Z,12.90
2019-05-09T08:46:28.861Z,12.80
2019-05-09T08:48:58.643Z,12.90
2019-05-09T08:52:06.688Z,12.90
2019-05-09T08:54:40.217Z,12.90
2019-05-09T08:57:10.151Z,12.80
2019-05-09T08:59:39.985Z,12.80
2019-05-09T09:02:15.381Z,12.90
2019-05-09T09:04:40.669Z,13.10
2019-05-09T09:07:10.442Z,13.30
2019-05-09T09:09:41.332Z,13.40
2019-05-09T09:12:25.957Z,13.50
2019-05-09T09:14:41.938Z,13.60
2019-05-09T09:17:11.472Z,13.60
2019-05-09T09:19:40.902Z,13.40
2019-05-09T09:22:10.651Z,13.40
2019-05-09T09:24:40.124Z,13.30
2019-05-09T09:27:10.038Z,13.20
2019-05-09T09:29:39.598Z,13.30
2019-05-09T09:32:09.123Z,13.50
2019-05-09T09:34:58.712Z,13.70
2019-05-09T09:37:44.752Z,13.90
2019-05-09T09:39:59.622Z,14.10
2019-05-09T09:42:29.016Z,14.40
2019-05-09T09:44:58.964Z,14.50
2019-05-09T09:47:28.789Z,14.60
2019-05-09T09:50:00.255Z,14.80
2019-05-09T09:52:32.092Z,14.80
2019-05-09T09:55:00.505Z,14.90
2019-05-09T09:57:29.929Z,14.70
2019-05-09T10:00:18.497Z,14.80
2019-05-09T10:02:48.299Z,14.70
2019-05-09T10:05:18.413Z,14.50
2019-05-09T10:07:47.945Z,14.50
2019-05-09T10:10:33.191Z,14.60
2019-05-09T10:13:04.142Z,14.40
2019-05-09T10:15:43.034Z,14.10
2019-05-09T10:18:18.654Z,14.00
2019-05-09T10:20:53.717Z,13.60
2019-05-09T10:23:23.479Z,13.70
2019-05-09T10:25:52.932Z,13.50
2019-05-09T10:28:22.423Z,13.30
2019-05-09T10:30:51.902Z,13.30
2019-05-09T10:33:21.366Z,13.30
2019-05-09T10:35:50.834Z,13.40
2019-05-09T10:38:20.261Z,13.60
2019-05-09T10:40:53.179Z,13.70
2019-05-09T10:43:39.769Z,14.00
2019-05-09T10:46:39.045Z,14.10
2019-05-09T10:49:04.744Z,14.10
2019-05-09T10:51:34.212Z,14.10
2019-05-09T10:54:03.681Z,14.10
2019-05-09T10:56:33.150Z,14.10
2019-05-09T10:59:02.737Z,14.10
2019-05-09T11:01:32.217Z,14.20
2019-05-09T11:04:01.689Z,14.30
2019-05-09T11:06:31.506Z,14.40
2019-05-09T11:09:01.362Z,14.20
2019-05-09T11:11:30.801Z,14.10
2019-05-09T11:14:00.536Z,14.30
2019-05-09T11:16:41.760Z,14.30
2019-05-09T11:19:01.175Z,14.40
2019-05-09T11:21:32.150Z,14.40
2019-05-09T11:24:10.712Z,14.50
2019-05-09T11:26:40.522Z,14.40
2019-05-09T11:29:10.032Z,14.40
2019-05-09T11:31:39.614Z,14.50
2019-05-09T11:34:09.226Z,14.50
2019-05-09T11:36:38.721Z,14.00
2019-05-09T11:39:10.867Z,13.90
2019-05-09T11:41:39.742Z,14.00
2019-05-09T11:44:09.527Z,14.20
2019-05-09T11:46:39.070Z,14.50
2019-05-09T11:49:08.744Z,14.90
2019-05-09T11:51:38.350Z,15.00
2019-05-09T11:54:09.179Z,15.10
2019-05-09T11:56:38.771Z,15.30
2019-05-09T11:59:08.335Z,15.60
2019-05-09T12:01:39.699Z,15.80
2019-05-09T12:04:09.481Z,15.40
2019-05-09T12:06:39.197Z,15.50
2019-05-09T12:09:09.498Z,15.30
2019-05-09T12:11:43.980Z,15.40
2019-05-09T12:14:10.428Z,15.50
2019-05-09T12:16:40.625Z,15.70
2019-05-09T12:19:10.123Z,15.90
2019-05-09T12:21:47.448Z,16.10
2019-05-09T12:24:10.680Z,16.20
2019-05-09T12:26:40.111Z,16.40
2019-05-09T12:29:09.778Z,16.60
2019-05-09T12:31:39.499Z,16.60
2019-05-09T12:34:09.389Z,16.70
2019-05-09T12:36:39.788Z,17.00
2019-05-09T12:39:11.361Z,17.30
2019-05-09T12:41:40.824Z,17.60
2019-05-09T12:44:10.264Z,17.40
2019-05-09T12:46:39.729Z,17.20
2019-05-09T12:49:09.500Z,17.30
2019-05-09T12:51:39.652Z,17.30
2019-05-09T12:54:10.302Z,17.30
2019-05-09T12:56:39.918Z,17.00
2019-05-09T12:59:09.717Z,16.90
2019-05-09T13:01:41.021Z,16.90
2019-05-09T13:04:10.401Z,16.90
2019-05-09T13:06:40.193Z,17.20
2019-05-09T13:09:09.690Z,17.40
2019-05-09T13:11:39.355Z,17.50
2019-05-09T13:14:10.063Z,17.60
2019-05-09T13:16:50.766Z,17.60
2019-05-09T13:19:18.675Z,17.60
2019-05-09T13:21:48.113Z,17.60
2019-05-09T13:24:19.497Z,17.40
2019-05-09T13:26:51.168Z,17.00
2019-05-09T13:29:20.946Z,16.70
2019-05-09T13:31:50.810Z,16.60
2019-05-09T13:34:20.602Z,16.70
2019-05-09T13:36:50.074Z,16.90
2019-05-09T13:39:19.846Z,17.00
2019-05-09T13:41:49.332Z,17.10
2019-05-09T13:44:18.777Z,17.00
2019-05-09T13:46:49.048Z,17.00
2019-05-09T13:49:19.406Z,16.90
2019-05-09T13:51:58.174Z,16.90
2019-05-09T13:54:20.290Z,16.90
2019-05-09T13:56:55.097Z,16.70
2019-05-09T13:59:21.428Z,16.60
2019-05-09T14:01:51.256Z,16.80
2019-05-09T14:04:20.701Z,16.80
2019-05-09T14:06:50.198Z,16.70
2019-05-09T14:09:20.153Z,16.50
2019-05-09T14:11:49.724Z,16.50
2019-05-09T14:14:19.172Z,16.60
2019-05-09T14:16:48.947Z,16.60
2019-05-09T14:19:45.511Z,16.70
2019-05-09T14:22:08.690Z,16.60
2019-05-09T14:24:38.085Z,16.70
2019-05-09T14:27:08.243Z,16.70
2019-05-09T14:29:38.484Z,16.80
2019-05-09T14:32:08.113Z,16.80
2019-05-09T14:34:39.008Z,16.90
2019-05-09T14:37:09.538Z,16.90
2019-05-09T14:39:54.556Z,16.90
2019-05-09T14:42:10.379Z,16.70
2019-05-09T14:44:39.775Z,16.50
2019-05-09T14:47:09.246Z,16.50
2019-05-09T14:49:43.510Z,16.60
2019-05-09T14:52:10.161Z,16.70
2019-05-09T14:54:39.582Z,16.70
2019-05-09T14:57:09.658Z,16.70
2019-05-09T14:59:39.221Z,16.70
2019-05-09T15:02:09.319Z,16.80
2019-05-09T15:04:38.892Z,16.90
2019-05-09T15:07:10.373Z,17.00
2019-05-09T15:09:39.875Z,17.20
2019-05-09T15:12:09.288Z,17.30
2019-05-09T15:14:38.768Z,17.40
2019-05-09T15:17:08.789Z,17.50
2019-05-09T15:19:38.694Z,17.60
2019-05-09T15:22:08.795Z,17.70
2019-05-09T15:24:38.934Z,17.40
2019-05-09T15:27:08.522Z,17.10
2019-05-09T15:29:39.037Z,16.60
2019-05-09T15:32:12.081Z,16.20
2019-05-09T15:34:39.954Z,16.20
2019-05-09T15:37:09.374Z,16.40
2019-05-09T15:39:41.599Z,16.40
2019-05-09T15:42:11.367Z,16.40
2019-05-09T15:44:40.857Z,16.40
2019-05-09T15:47:18.219Z,16.40
2019-05-09T15:49:49.373Z,16.50
2019-05-09T15:52:19.236Z,16.40
2019-05-09T15:54:49.070Z,16.40
2019-05-09T15:57:18.568Z,16.40
2019-05-09T15:59:48.073Z,16.30
2019-05-09T16:02:19.103Z,16.30
2019-05-09T16:04:48.509Z,16.20
2019-05-09T16:07:18.059Z,16.00
2019-05-09T16:09:50.399Z,15.80
2019-05-09T16:12:20.198Z,15.70
2019-05-09T16:14:49.664Z,15.70
2019-05-09T16:17:19.379Z,15.70
2019-05-09T16:19:48.887Z,15.80
2019-05-09T16:22:19.093Z,15.90
2019-05-09T16:24:49.637Z,15.90
2019-05-09T16:27:19.477Z,16.00
2019-05-09T16:29:48.923Z,16.10
2019-05-09T16:32:18.746Z,16.10
2019-05-09T16:34:48.977Z,16.10
2019-05-09T16:37:18.847Z,16.10
2019-05-09T16:39:48.286Z,16.10
2019-05-09T16:42:17.722Z,16.10
2019-05-09T16:44:48.079Z,16.20
2019-05-09T16:47:21.671Z,16.40
2019-05-09T16:49:49.016Z,16.40
2019-05-09T16:52:18.518Z,16.40
2019-05-09T16:54:50.161Z,16.30
2019-05-09T16:57:20.158Z,16.20
2019-05-09T16:59:49.564Z,16.20
2019-05-09T17:02:24.742Z,16.20
2019-05-09T17:04:50.438Z,16.00
2019-05-09T17:07:21.518Z,15.80
2019-05-09T17:09:51.232Z,15.80
2019-05-09T17:12:20.773Z,15.80
2019-05-09T17:14:54.355Z,16.00
2019-05-09T17:17:23.782Z,16.00
2019-05-09T17:19:53.213Z,16.00
2019-05-09T17:22:41.613Z,15.90
2019-05-09T17:25:11.479Z,15.90
2019-05-09T17:27:41.345Z,16.00
2019-05-09T17:30:10.760Z,16.00
2019-05-09T17:32:41.673Z,16.00
2019-05-09T17:35:12.057Z,15.90
2019-05-09T17:37:42.203Z,15.80
2019-05-09T17:40:11.996Z,15.80
2019-05-09T17:42:41.465Z,15.90
2019-05-09T17:45:11.403Z,15.90
2019-05-09T17:47:40.880Z,15.60
2019-05-09T17:50:10.429Z,15.60
2019-05-09T17:52:39.959Z,15.60
2019-05-09T17:55:09.885Z,15.60
2019-05-09T17:57:39.795Z,15.50
2019-05-09T18:00:11.844Z,15.50
2019-05-09T18:02:41.398Z,15.40
2019-05-09T18:05:11.071Z,15.30
2019-05-09T18:07:40.857Z,15.30
2019-05-09T18:10:11.070Z,15.30
2019-05-09T18:12:40.841Z,15.20
2019-05-09T18:15:10.693Z,15.10
2019-05-09T18:17:40.634Z,15.00
2019-05-09T18:20:10.169Z,14.90
2019-05-09T18:22:40.337Z,14.80
2019-05-09T18:25:09.830Z,14.80
2019-05-09T18:27:39.236Z,14.70
2019-05-09T18:30:09.794Z,14.70
2019-05-09T18:32:44.602Z,14.60
2019-05-09T18:35:18.101Z,14.50
2019-05-09T18:37:48.098Z,14.50
2019-05-09T18:40:18.170Z,14.50
2019-05-09T18:42:55.439Z,14.40
2019-05-09T18:45:28.080Z,14.40
2019-05-09T18:47:58.062Z,14.20
2019-05-09T18:50:28.865Z,14.20
2019-05-09T18:52:58.383Z,14.10
2019-05-09T18:55:27.839Z,14.10
2019-05-09T18:57:57.722Z,14.10
2019-05-09T19:00:27.934Z,14.00
2019-05-09T19:02:57.776Z,14.00
2019-05-09T19:05:28.011Z,14.00
2019-05-09T19:07:57.521Z,14.00
2019-05-09T19:10:27.906Z,14.00
2019-05-09T19:13:16.945Z,14.00
2019-05-09T19:15:58.107Z,13.90
2019-05-09T19:18:47.820Z,13.80
2019-05-09T19:21:25.043Z,13.80
2019-05-09T19:23:54.644Z,13.80
2019-05-09T19:26:37.301Z,13.80
2019-05-09T19:29:08.917Z,13.70
2019-05-09T19:31:40.941Z,13.70
2019-05-09T19:34:11.251Z,13.70
2019-05-09T19:36:40.801Z,13.60
2019-05-09T19:39:13.866Z,13.60
2019-05-09T19:41:43.328Z,13.50
2019-05-09T19:44:12.939Z,13.40
2019-05-09T19:46:42.461Z,13.20
2019-05-09T19:49:12.289Z,13.10
2019-05-09T19:51:41.735Z,13.10
2019-05-09T19:54:11.200Z,13.00
2019-05-09T19:56:40.650Z,13.00
2019-05-09T19:59:10.394Z,12.90
2019-05-09T20:01:39.938Z,12.90
2019-05-09T20:04:09.368Z,12.70
2019-05-09T20:06:39.253Z,12.70
2019-05-09T20:09:17.458Z,12.70
2019-05-09T20:12:05.847Z,12.40
2019-05-09T20:14:38.153Z,12.20
2019-05-09T20:17:07.636Z,12.10
2019-05-09T20:19:37.157Z,12.00
2019-05-09T20:22:06.901Z,11.90
2019-05-09T20:24:36.325Z,11.80
2019-05-09T20:27:05.750Z,11.70
2019-05-09T20:29:35.188Z,11.70
2019-05-09T20:32:04.646Z,11.80
2019-05-09T20:34:34.098Z,11.70
2019-05-09T20:37:03.562Z,11.80
2019-05-09T20:39:33.180Z,11.80
2019-05-09T20:42:02.804Z,11.80
2019-05-09T20:44:32.398Z,11.90
2019-05-09T20:47:02.112Z,12.00
2019-05-09T20:49:31.724Z,12.00
2019-05-09T20:52:01.349Z,12.10
2019-05-09T20:54:30.991Z,12.10
2019-05-09T20:57:00.975Z,12.10
2019-05-09T20:59:30.574Z,12.10
2019-05-09T21:02:00.164Z,12.10
2019-05-09T21:04:30.171Z,12.20
2019-05-09T21:06:59.770Z,12.20
2019-05-09T21:09:29.755Z,12.10
2019-05-09T21:11:59.374Z,12.10
2019-05-09T21:14:29.402Z,12.10
2019-05-09T21:16:59.065Z,12.10
2019-05-09T21:19:29.025Z,12.00
2019-05-09T21:21:58.678Z,12.00
2019-05-09T21:24:28.342Z,12.00
2019-05-09T21:26:57.958Z,12.00
2019-05-09T21:29:27.984Z,11.90
2019-05-09T21:31:57.593Z,11.90
2019-05-09T21:34:27.258Z,11.90
2019-05-09T21:36:56.678Z,11.80
2019-05-09T21:39:26.153Z,11.80
2019-05-09T21:41:55.597Z,11.80
2019-05-09T21:44:25.071Z,11.70
2019-05-09T21:46:54.529Z,11.80
2019-05-09T21:49:23.997Z,11.80
2019-05-09T21:51:53.428Z,11.80
2019-05-09T21:54:22.888Z,11.70
2019-05-09T21:56:52.345Z,11.70
2019-05-09T21:59:21.731Z,11.80
2019-05-09T22:01:51.169Z,11.80
2019-05-09T22:04:20.617Z,11.80
2019-05-09T22:06:50.022Z,11.80
2019-05-09T22:09:19.434Z,11.80
2019-05-09T22:11:48.892Z,11.70
2019-05-09T22:14:18.320Z,11.70
2019-05-09T22:16:48.857Z,11.70
2019-05-09T22:19:18.721Z,11.60
2019-05-09T22:21:48.178Z,11.60
2019-05-09T22:24:17.616Z,11.60
2019-05-09T22:26:47.087Z,11.60
2019-05-09T22:29:16.495Z,11.50
2019-05-09T22:31:45.949Z,11.50
2019-05-09T22:34:15.405Z,11.40
2019-05-09T22:36:44.849Z,11.40
2019-05-09T22:39:14.245Z,11.40
2019-05-09T22:41:43.727Z,11.40
2019-05-09T22:44:13.523Z,11.40
2019-05-09T22:46:42.997Z,11.40
2019-05-09T22:49:12.837Z,11.40
2019-05-09T22:51:42.307Z,11.40
2019-05-09T22:54:13.173Z,11.40
2019-05-09T22:56:42.813Z,11.50
2019-05-09T22:59:12.269Z,11.50
2019-05-09T23:01:41.703Z,11.60
2019-05-09T23:04:11.122Z,11.60
2019-05-09T23:06:40.543Z,11.60
2019-05-09T23:09:09.983Z,11.50
2019-05-09T23:11:39.421Z,11.60
2019-05-09T23:14:08.865Z,11.50
2019-05-09T23:16:40.153Z,11.50
2019-05-09T23:19:09.625Z,11.40
2019-05-09T23:21:39.113Z,11.40
2019-05-09T23:24:10.295Z,11.40
2019-05-09T23:26:39.744Z,11.50
2019-05-09T23:29:09.165Z,11.50
2019-05-09T23:31:49.430Z,11.40
2019-05-09T23:34:18.844Z,11.50
2019-05-09T23:36:48.248Z,11.50
2019-05-09T23:39:21.552Z,11.40
2019-05-09T23:41:50.985Z,11.40
2019-05-09T23:44:20.722Z,11.40
2019-05-09T23:46:50.263Z,11.40
2019-05-09T23:49:19.711Z,11.30
2019-05-09T23:51:49.730Z,11.20
2019-05-09T23:54:47.472Z,11.10
2019-05-09T23:57:28.641Z,11.10
